»·PEaware :: N969DA KBUR-KLAS

N969DA :: KBUR-KLAS

FLIGHT INFORMATION

Flight Status: Arrived
Operator: Privately registered:
United States
More flights under this callsign
Pilot: Anonymous 20880 (20880)
Aircraft: Unknown
(DA62)
More flights by this aircraft type
Origin: KBUR Bob Hope-Burbank
United States
Destination: KLAS McCarran Intl
United States
More flights between these airports :: More routes between these airports
Route: +VNY3 DAG CRESO CRESO4
File this flight plan on PilotEdge
Remarks: I5 rating
Altitude:
(Current/Filed)
13,000ft
Speed:
(Current/Filed)
150kts
Departed: 27-Dec-18 07:40 PM
Arrived: 27-Dec-18 09:06 PM
Distance/Time
Traveled:
193nm/1:25
Distance/Time
To Go:
Arrived

Flight Plot

Page will automatically refresh every two minutes.

Flight plan parsing failed; only flown route is shown


Map Options




Map Legend


Flown Route
Filed Route
Departure Airport
Arrival Airport
Navaid (VOR, NDB)
Fix

Horizontal Profiles

Position Reports

Time Latitude Longitude Heading Altitude Ground
Speed
27-Dec-18 19:06 34.196337 -118.367565 358 721ft 0kts
27-Dec-18 19:07 34.196337 -118.367565 358 721ft 0kts
27-Dec-18 19:08 34.196337 -118.367565 358 721ft 0kts
27-Dec-18 19:09 34.196337 -118.367565 358 721ft 0kts
27-Dec-18 19:09 34.196337 -118.367565 358 721ft 0kts
27-Dec-18 19:10 34.196337 -118.367565 358 721ft 0kts
27-Dec-18 19:12 34.196337 -118.367565 358 721ft 0kts
27-Dec-18 19:13 34.196337 -118.367565 358 721ft 0kts
27-Dec-18 19:13 34.196337 -118.367565 358 721ft 0kts
27-Dec-18 19:15 34.196337 -118.367565 358 721ft 0kts
27-Dec-18 19:16 34.196337 -118.367565 358 721ft 0kts
27-Dec-18 19:16 34.196337 -118.367565 358 721ft 0kts
27-Dec-18 19:17 34.196337 -118.367565 358 721ft 0kts
27-Dec-18 19:19 34.196337 -118.367565 358 721ft 0kts
27-Dec-18 19:19 34.196337 -118.367565 358 721ft 0kts
27-Dec-18 19:20 34.196337 -118.367565 358 721ft 0kts
27-Dec-18 19:21 34.196337 -118.367565 358 721ft 0kts
27-Dec-18 19:22 34.196337 -118.367565 358 721ft 0kts
27-Dec-18 19:23 34.196337 -118.367565 358 721ft 0kts
27-Dec-18 19:24 34.196337 -118.367565 358 721ft 0kts
27-Dec-18 19:25 34.196337 -118.367565 358 721ft 0kts
27-Dec-18 19:26 34.196337 -118.367565 358 721ft 0kts
27-Dec-18 19:27 34.196337 -118.367565 358 721ft 0kts
27-Dec-18 19:28 34.196337 -118.367565 358 721ft 0kts
27-Dec-18 19:29 34.196337 -118.367565 358 721ft 0kts
27-Dec-18 19:30 34.196337 -118.367565 358 721ft 0kts
27-Dec-18 19:31 34.196337 -118.367565 358 721ft 0kts
27-Dec-18 19:32 34.196916 -118.366275 85 722ft 12kts
27-Dec-18 19:33 34.196811 -118.359463 88 712ft 19kts
27-Dec-18 19:34 34.195145 -118.356742 147 703ft 0kts
27-Dec-18 19:35 34.195145 -118.356742 147 703ft 0kts
27-Dec-18 19:36 34.195145 -118.356742 147 703ft 0kts
27-Dec-18 19:37 34.195145 -118.356742 147 703ft 0kts
27-Dec-18 19:38 34.195145 -118.356742 147 703ft 0kts
27-Dec-18 19:39 34.198316 -118.356535 345 709ft 68kts
27-Dec-18 19:40 34.215568 -118.372170 286 1807ft 106kts
27-Dec-18 19:41 34.219294 -118.409923 285 2833ft 118kts
27-Dec-18 19:42 34.221859 -118.450467 271 3846ft 127kts
27-Dec-18 19:43 34.219425 -118.493223 283 4851ft 127kts
27-Dec-18 19:44 34.246659 -118.500065 11 5851ft 116kts
27-Dec-18 19:45 34.277853 -118.491209 11 6843ft 118kts
27-Dec-18 19:46 34.309822 -118.482242 11 7844ft 119kts
27-Dec-18 19:47 34.337101 -118.459055 38 8841ft 124kts
27-Dec-18 19:48 34.363208 -118.431694 36 9842ft 125kts
27-Dec-18 19:49 34.389866 -118.404837 36 10836ft 126kts
27-Dec-18 19:50 34.416962 -118.377568 36 11838ft 127kts
27-Dec-18 19:51 34.443942 -118.349979 36 12840ft 127kts
27-Dec-18 19:52 34.472555 -118.317081 45 13054ft 157kts
27-Dec-18 19:53 34.500373 -118.273762 48 13049ft 166kts
27-Dec-18 19:54 34.528331 -118.229114 48 13046ft 167kts
27-Dec-18 19:55 34.556639 -118.183837 48 12990ft 169kts
27-Dec-18 19:56 34.584815 -118.138711 48 12990ft 167kts
27-Dec-18 19:57 34.612842 -118.093771 48 12990ft 167kts
27-Dec-18 19:58 34.633650 -118.043878 76 12988ft 174kts
27-Dec-18 19:59 34.640396 -117.985506 76 12985ft 174kts
27-Dec-18 20:00 34.646846 -117.927242 77 12981ft 175kts
27-Dec-18 20:01 34.652952 -117.868754 77 12976ft 175kts
27-Dec-18 20:02 34.659385 -117.810089 76 12972ft 175kts
27-Dec-18 20:03 34.667270 -117.752340 67 12977ft 173kts
27-Dec-18 20:04 34.681755 -117.695873 67 12978ft 176kts
27-Dec-18 20:05 34.696306 -117.638935 67 12974ft 177kts
27-Dec-18 20:06 34.710925 -117.581786 67 12972ft 177kts
27-Dec-18 20:07 34.725505 -117.524691 67 12972ft 177kts
27-Dec-18 20:08 34.740058 -117.467582 67 12972ft 177kts
27-Dec-18 20:09 34.754613 -117.410332 67 12972ft 177kts
27-Dec-18 20:10 34.769086 -117.353291 67 12972ft 177kts
27-Dec-18 20:11 34.783499 -117.296362 67 12970ft 177kts
27-Dec-18 20:12 34.797939 -117.239200 67 12971ft 177kts
27-Dec-18 20:13 34.812340 -117.182082 67 12954ft 177kts
27-Dec-18 20:14 34.826722 -117.124881 67 12952ft 177kts
27-Dec-18 20:15 34.840947 -117.068078 66 12952ft 177kts
27-Dec-18 20:16 34.855186 -117.011172 65 12965ft 176kts
27-Dec-18 20:17 34.869511 -116.953821 64 12969ft 177kts
27-Dec-18 20:18 34.883739 -116.896758 63 12971ft 175kts
27-Dec-18 20:19 34.898013 -116.839467 63 12969ft 176kts
27-Dec-18 20:20 34.912130 -116.782633 62 12970ft 174kts
27-Dec-18 20:21 34.926086 -116.726285 62 12969ft 173kts
27-Dec-18 20:22 34.939877 -116.670475 63 12969ft 172kts
27-Dec-18 20:23 34.953569 -116.614939 62 12968ft 169kts
27-Dec-18 20:24 34.966995 -116.565567 59 12971ft 166kts
27-Dec-18 20:25 34.988237 -116.517965 49 12972ft 160kts
27-Dec-18 20:26 35.010276 -116.470658 51 12973ft 160kts
27-Dec-18 20:27 35.031476 -116.423437 51 12975ft 158kts
27-Dec-18 20:28 35.052404 -116.376169 52 12977ft 157kts
27-Dec-18 20:29 35.073198 -116.329164 53 12977ft 158kts
27-Dec-18 20:30 35.094044 -116.282015 53 12977ft 158kts
27-Dec-18 20:31 35.114889 -116.234805 53 12984ft 159kts
27-Dec-18 20:32 35.135909 -116.187118 53 12984ft 160kts
27-Dec-18 20:33 35.157081 -116.139026 53 12984ft 161kts
27-Dec-18 20:34 35.178281 -116.090787 53 12984ft 161kts
27-Dec-18 20:35 35.199439 -116.042590 53 12983ft 161kts
27-Dec-18 20:36 35.220637 -115.994233 53 12983ft 161kts
27-Dec-18 20:37 35.241877 -115.945770 52 12983ft 161kts
27-Dec-18 20:38 35.263207 -115.897301 53 12981ft 162kts
27-Dec-18 20:39 35.284272 -115.848708 53 12997ft 160kts
27-Dec-18 20:40 35.305200 -115.800643 53 13025ft 161kts
27-Dec-18 20:41 35.332193 -115.758716 40 13020ft 156kts
27-Dec-18 20:42 35.361545 -115.719662 40 13015ft 156kts
27-Dec-18 20:43 35.390806 -115.680624 40 13010ft 156kts
27-Dec-18 20:44 35.419887 -115.641789 40 13009ft 156kts
27-Dec-18 20:45 35.448531 -115.603496 40 13009ft 156kts
27-Dec-18 20:46 35.477454 -115.564785 40 13009ft 156kts
27-Dec-18 20:47 35.506611 -115.525810 40 13009ft 156kts
27-Dec-18 20:48 35.535674 -115.486775 40 13008ft 156kts
27-Dec-18 20:49 35.564627 -115.447908 40 13008ft 155kts
27-Dec-18 20:50 35.593699 -115.409267 32 13003ft 151kts
27-Dec-18 20:51 35.628716 -115.387190 21 12104ft 141kts
27-Dec-18 20:52 35.663697 -115.366970 21 11098ft 139kts
27-Dec-18 20:53 35.698825 -115.347462 21 10091ft 139kts
27-Dec-18 20:54 35.734124 -115.328511 21 9089ft 139kts
27-Dec-18 20:55 35.769819 -115.309983 21 8084ft 140kts
27-Dec-18 20:56 35.805762 -115.291854 21 7080ft 140kts
27-Dec-18 20:57 35.842133 -115.273925 21 6081ft 140kts
27-Dec-18 20:58 35.877799 -115.256605 21 6007ft 140kts
27-Dec-18 20:59 35.914467 -115.238785 21 5769ft 144kts
27-Dec-18 21:00 35.951827 -115.221830 18 5262ft 143kts
27-Dec-18 21:01 35.991437 -115.210506 13 4572ft 150kts
27-Dec-18 21:03 36.030428 -115.197753 30 3584ft 136kts
27-Dec-18 21:04 36.058845 -115.180266 24 2693ft 88kts
27-Dec-18 21:05 36.079575 -115.167960 19 2166ft 59kts
27-Dec-18 21:06 36.082440 -115.167494 295 2158ft 0kts
27-Dec-18 21:07 36.082600 -115.167876 303 2159ft 20kts
27-Dec-18 21:08 36.081988 -115.171370 309 2168ft 0kts
27-Dec-18 21:09 36.081988 -115.171370 309 2168ft 0kts
27-Dec-18 21:10 36.081988 -115.171370 309 2168ft 0kts
27-Dec-18 21:11 36.081988 -115.171370 309 2168ft 0kts

Navigation Log

Ident Type
Flight plan parsing failed, navigation log unavailable